Time;durP1;ratioP1;P1;durP2;ratioP2;P2;SDS_P1;SDS_P2;PMS_P1;PMS_P2;Temp;Humidity;BMP_temperature;BMP_pressure;BME280_temperature;BME280_humidity;BME280_pressure;Samples;Min_cycle;Max_cycle;Signal;HPM_P1;HPM_P2
2022/05/13 00:01:28;;;;;;;;;;;;;;;;;;4993198;28;928;-65
2022/05/13 00:03:54;;;;;;;;;;;;;;;;;;4993119;28;923;-66
2022/05/13 00:06:19;;;;;;;;;;;;;;;;;;4993389;28;1158;-66
2022/05/13 00:08:44;;;;;;;;;;;;;;;;;;4993464;28;992;-65
2022/05/13 00:11:10;;;;;;;;;;;;;;;;;;4993867;28;991;-66
2022/05/13 00:13:35;;;;;;;;;;;;;;;;;;4993336;28;1898;-66
2022/05/13 00:16:00;;;;;;;;;;;;;;;;;;4975285;28;1200;-66
2022/05/13 00:18:26;;;;;;;;;;;;;;;;;;4993363;28;854;-66
2022/05/13 00:20:52;;;;;;;;;;;;;;;;;;4993344;28;837;-66
2022/05/13 00:23:17;;;;;;;;;;;;;;;;;;4975131;28;1085;-66
2022/05/13 00:25:42;;;;;;;;;;;;;;;;;;4975787;28;1316;-66
2022/05/13 00:28:08;;;;;;;;;;;;;;;;;;4992993;28;1078;-66
2022/05/13 00:30:36;;;;;;;;;;;;;;;;;;5007880;28;1360;-66
2022/05/13 00:33:02;;;;;;;;;;;;;;;;;;4975206;28;1378;-66
2022/05/13 00:35:27;;;;;;;;;;;;;;;;;;4992483;28;1977;-66
2022/05/13 00:37:53;;;;;;;;;;;;;;;;;;4975030;28;1258;-66
2022/05/13 00:40:20;;;;;;;;;;;;;;;;;;5007634;28;1234;-66
2022/05/13 00:42:46;;;;;;;;;;;;;;;;;;4992705;28;854;-65
2022/05/13 00:45:13;;;;;;;;;;;;;;;;;;4993911;28;900;-66
2022/05/13 00:47:39;;;;;;;;;;;;;;;;;;4992767;28;846;-66
2022/05/13 00:50:04;;;;;;;;;;;;;;;;;;4992395;28;834;-66
2022/05/13 00:52:31;;;;;;;;;;;;;;;;;;5007002;28;932;-65
2022/05/13 00:54:58;;;;;;;;;;;;;;;;;;4992460;28;1978;-65
2022/05/13 00:57:23;;;;;;;;;;;;;;;;;;4974922;28;1321;-65
2022/05/13 00:59:50;;;;;;;;;;;;;;;;;;4992883;28;1015;-65
2022/05/13 01:02:16;;;;;;;;;;;;;;;;;;4992329;28;855;-65
2022/05/13 01:04:42;;;;;;;;;;;;;;;;;;4975386;28;1271;-65
2022/05/13 01:07:16;;;;;;;;;;;;;;;;;;4992453;28;857;-66
2022/05/13 01:09:52;;;;;;;;;;;;;;;;;;4974883;28;1142;-66
2022/05/13 01:12:21;;;;;;;;;;;;;;;;;;4992349;28;771;-66
2022/05/13 01:14:51;;;;;;;;;;;;;;;;;;4992529;28;1898;-65
2022/05/13 01:20:02;;;;;;;;;;;;;;;;;;4992413;28;671;-65
2022/05/13 01:22:28;;;;;;;;;;;;;;;;;;4974372;28;1142;-66
2022/05/13 01:24:54;;;;;;;;;;;;;;;;;;4992250;28;1160;-65
2022/05/13 01:27:19;;;;;;;;;;;;;;;;;;4991752;28;1185;-66
2022/05/13 01:29:44;;;;;;;;;;;;;;;;;;4990784;28;928;-66
2022/05/13 01:32:10;;;;;;;;;;;;;;;;;;4974315;28;1353;-66
2022/05/13 01:34:35;;;;;;;;;;;;;;;;;;4992092;28;1914;-66
2022/05/13 01:37:00;;;;;;;;;;;;;;;;;;4992131;28;822;-66
2022/05/13 01:39:25;;;;;;;;;;;;;;;;;;5007083;28;1042;-66
2022/05/13 01:41:51;;;;;;;;;;;;;;;;;;4991879;28;924;-66
2022/05/13 01:44:16;;;;;;;;;;;;;;;;;;4992038;28;944;-66
2022/05/13 01:46:41;;;;;;;;;;;;;;;;;;4991963;28;889;-66
2022/05/13 01:49:07;;;;;;;;;;;;;;;;;;5007567;28;904;-66
2022/05/13 01:51:32;;;;;;;;;;;;;;;;;;4992297;28;829;-66
2022/05/13 01:53:57;;;;;;;;;;;;;;;;;;4991899;28;1966;-66
2022/05/13 01:56:22;;;;;;;;;;;;;;;;;;4991823;28;806;-70
2022/05/13 01:58:48;;;;;;;;;;;;;;;;;;4991696;28;821;-70
2022/05/13 02:01:13;;;;;;;;;;;;;;;;;;4991649;28;1039;-70
2022/05/13 02:03:44;;;;;;;;;;;;;;;;;;4992429;28;818;-66
2022/05/13 02:06:13;;;;;;;;;;;;;;;;;;4991655;28;850;-66
2022/05/13 02:08:38;;;;;;;;;;;;;;;;;;4991785;28;940;-66
2022/05/13 02:11:04;;;;;;;;;;;;;;;;;;4991481;28;806;-66
2022/05/13 02:13:29;;;;;;;;;;;;;;;;;;4974321;28;1255;-70
2022/05/13 02:15:54;;;;;;;;;;;;;;;;;;4995254;28;1930;-66
2022/05/13 02:18:20;;;;;;;;;;;;;;;;;;5010705;28;794;-66
2022/05/13 02:20:46;;;;;;;;;;;;;;;;;;4995301;28;956;-66
2022/05/13 02:23:11;;;;;;;;;;;;;;;;;;4995558;28;917;-66
2022/05/13 02:25:37;;;;;;;;;;;;;;;;;;4995621;28;723;-66
2022/05/13 02:28:03;;;;;;;;;;;;;;;;;;4994929;28;1200;-66
2022/05/13 02:30:29;;;;;;;;;;;;;;;;;;4994679;28;1143;-66
2022/05/13 02:32:54;;;;;;;;;;;;;;;;;;5010604;28;999;-66
2022/05/13 02:35:20;;;;;;;;;;;;;;;;;;4995154;28;1902;-66
2022/05/13 02:37:45;;;;;;;;;;;;;;;;;;4995007;28;960;-66
2022/05/13 02:40:11;;;;;;;;;;;;;;;;;;4995232;28;951;-66
2022/05/13 02:42:37;;;;;;;;;;;;;;;;;;4977824;28;1577;-66
2022/05/13 02:45:03;;;;;;;;;;;;;;;;;;4994389;28;833;-66
2022/05/13 02:47:28;;;;;;;;;;;;;;;;;;4994879;28;793;-66
2022/05/13 02:52:37;;;;;;;;;;;;;;;;;;4995559;28;721;-66
2022/05/13 02:55:03;;;;;;;;;;;;;;;;;;4994786;28;1906;-66
2022/05/13 02:57:28;;;;;;;;;;;;;;;;;;5009411;28;1598;-66
2022/05/13 02:59:54;;;;;;;;;;;;;;;;;;4994854;28;921;-66
2022/05/13 03:02:19;;;;;;;;;;;;;;;;;;4994099;28;1039;-66
2022/05/13 03:04:44;;;;;;;;;;;;;;;;;;4994416;28;1205;-66
2022/05/13 03:07:09;;;;;;;;;;;;;;;;;;4994388;28;834;-66
2022/05/13 03:09:34;;;;;;;;;;;;;;;;;;4994725;28;943;-66
2022/05/13 03:12:00;;;;;;;;;;;;;;;;;;4994321;28;807;-66
2022/05/13 03:14:25;;;;;;;;;;;;;;;;;;4976120;28;1957;-66
2022/05/13 03:16:50;;;;;;;;;;;;;;;;;;4977038;28;1682;-66
2022/05/13 03:19:15;;;;;;;;;;;;;;;;;;4994194;28;877;-66
2022/05/13 03:21:41;;;;;;;;;;;;;;;;;;4976682;28;894;-66
2022/05/13 03:24:06;;;;;;;;;;;;;;;;;;4976524;28;1478;-66
2022/05/13 03:26:31;;;;;;;;;;;;;;;;;;4993397;28;750;-66
2022/05/13 03:28:57;;;;;;;;;;;;;;;;;;4993783;28;1225;-67
2022/05/13 03:31:22;;;;;;;;;;;;;;;;;;5008993;28;959;-66
2022/05/13 03:33:47;;;;;;;;;;;;;;;;;;4993553;28;1981;-66
2022/05/13 03:36:14;;;;;;;;;;;;;;;;;;4993930;28;825;-66
2022/05/13 03:38:40;;;;;;;;;;;;;;;;;;4993737;28;845;-66
2022/05/13 03:41:05;;;;;;;;;;;;;;;;;;4993771;28;845;-66
2022/05/13 03:43:31;;;;;;;;;;;;;;;;;;4993909;28;904;-66
2022/05/13 03:45:56;;;;;;;;;;;;;;;;;;4994153;28;888;-66
2022/05/13 03:48:21;;;;;;;;;;;;;;;;;;4993729;28;889;-66
2022/05/13 03:50:47;;;;;;;;;;;;;;;;;;4993834;28;880;-66
2022/05/13 03:53:12;;;;;;;;;;;;;;;;;;4994188;28;861;-66
2022/05/13 03:55:37;;;;;;;;;;;;;;;;;;4994002;28;1994;-66
2022/05/13 03:58:03;;;;;;;;;;;;;;;;;;4993510;28;1353;-66
2022/05/13 04:00:29;;;;;;;;;;;;;;;;;;4975418;28;1294;-66
2022/05/13 04:02:54;;;;;;;;;;;;;;;;;;4993882;28;818;-66
2022/05/13 04:10:48;;;;;;;;;;;;;;;;;;4994095;28;624;-66
2022/05/13 04:16:06;;;;;;;;;;;;;;;;;;4993337;28;1910;-66
2022/05/13 04:18:36;;;;;;;;;;;;;;;;;;5007123;28;853;-66
2022/05/13 04:21:04;;;;;;;;;;;;;;;;;;4975900;28;1232;-66
2022/05/13 04:23:30;;;;;;;;;;;;;;;;;;4993257;28;902;-66
2022/05/13 04:25:55;;;;;;;;;;;;;;;;;;4993044;28;1016;-66
2022/05/13 04:28:20;;;;;;;;;;;;;;;;;;4993057;28;1091;-66
2022/05/13 04:30:46;;;;;;;;;;;;;;;;;;4993810;28;778;-66
2022/05/13 04:33:12;;;;;;;;;;;;;;;;;;4993982;28;908;-66
2022/05/13 04:35:37;;;;;;;;;;;;;;;;;;4992750;28;1907;-66
2022/05/13 04:38:02;;;;;;;;;;;;;;;;;;4992660;28;834;-66
2022/05/13 04:40:28;;;;;;;;;;;;;;;;;;4992732;28;886;-66
2022/05/13 04:42:53;;;;;;;;;;;;;;;;;;4993479;28;1003;-66
2022/05/13 04:45:25;;;;;;;;;;;;;;;;;;4993505;28;872;-66
2022/05/13 04:50:36;;;;;;;;;;;;;;;;;;4993175;28;657;-67
2022/05/13 04:53:02;;;;;;;;;;;;;;;;;;4992945;28;1006;-66
2022/05/13 04:55:27;;;;;;;;;;;;;;;;;;4998089;28;1960;-66
2022/05/13 04:57:52;;;;;;;;;;;;;;;;;;5012724;28;801;-66
2022/05/13 05:00:18;;;;;;;;;;;;;;;;;;5012234;28;909;-67
2022/05/13 05:02:43;;;;;;;;;;;;;;;;;;5012165;28;1292;-66
2022/05/13 05:05:08;;;;;;;;;;;;;;;;;;5008445;28;1237;-66
2022/05/13 05:07:34;;;;;;;;;;;;;;;;;;5010855;28;1150;-66
2022/05/13 05:09:59;;;;;;;;;;;;;;;;;;5010988;28;1169;-66
2022/05/13 05:12:24;;;;;;;;;;;;;;;;;;5011827;28;1217;-66
2022/05/13 05:14:49;;;;;;;;;;;;;;;;;;5012562;28;1902;-66
2022/05/13 05:17:14;;;;;;;;;;;;;;;;;;5012446;28;931;-66
2022/05/13 05:19:40;;;;;;;;;;;;;;;;;;5012341;28;951;-66
2022/05/13 05:22:05;;;;;;;;;;;;;;;;;;5012370;28;881;-66
2022/05/13 05:24:31;;;;;;;;;;;;;;;;;;5012028;28;871;-66
2022/05/13 05:26:57;;;;;;;;;;;;;;;;;;5012184;28;901;-66
2022/05/13 05:29:22;;;;;;;;;;;;;;;;;;5011867;28;1086;-67
2022/05/13 05:31:48;;;;;;;;;;;;;;;;;;4994346;28;1360;-67
2022/05/13 05:34:14;;;;;;;;;;;;;;;;;;5012133;28;1906;-66
2022/05/13 05:36:39;;;;;;;;;;;;;;;;;;5012163;28;861;-67
2022/05/13 05:39:04;;;;;;;;;;;;;;;;;;5012250;28;797;-67
2022/05/13 05:41:30;;;;;;;;;;;;;;;;;;5012020;28;809;-66
2022/05/13 05:43:55;;;;;;;;;;;;;;;;;;5011953;28;849;-67
2022/05/13 05:46:21;;;;;;;;;;;;;;;;;;5011711;28;1003;-67
2022/05/13 05:48:46;;;;;;;;;;;;;;;;;;5012658;28;956;-67
2022/05/13 05:51:11;;;;;;;;;;;;;;;;;;5015696;28;833;-66
2022/05/13 05:59:05;;;;;;;;;;;;;;;;;;5015604;28;671;-71
2022/05/13 06:01:30;;;;;;;;;;;;;;;;;;5014842;28;929;-71
2022/05/13 06:03:56;;;;;;;;;;;;;;;;;;5014952;28;1178;-71
2022/05/13 06:06:21;;;;;;;;;;;;;;;;;;5014977;28;857;-71
2022/05/13 06:08:46;;;;;;;;;;;;;;;;;;4997693;28;865;-71
2022/05/13 06:11:12;;;;;;;;;;;;;;;;;;5014892;28;984;-71
2022/05/13 06:13:38;;;;;;;;;;;;;;;;;;5014762;28;866;-71
2022/05/13 06:16:04;;;;;;;;;;;;;;;;;;4997221;28;1976;-71
2022/05/13 06:18:29;;;;;;;;;;;;;;;;;;5014820;28;924;-71
2022/05/13 06:20:54;;;;;;;;;;;;;;;;;;5014924;28;1186;-71
2022/05/13 06:23:19;;;;;;;;;;;;;;;;;;5014813;28;1035;-71
2022/05/13 06:25:45;;;;;;;;;;;;;;;;;;4997282;28;904;-67
2022/05/13 06:28:10;;;;;;;;;;;;;;;;;;5014650;28;1098;-66
2022/05/13 06:30:36;;;;;;;;;;;;;;;;;;5014237;28;979;-67
2022/05/13 06:33:02;;;;;;;;;;;;;;;;;;5014759;28;902;-67
2022/05/13 06:35:28;;;;;;;;;;;;;;;;;;5014465;28;1922;-67
2022/05/13 06:37:53;;;;;;;;;;;;;;;;;;4997725;28;868;-67
2022/05/13 06:40:19;;;;;;;;;;;;;;;;;;5014352;28;817;-67
2022/05/13 06:42:45;;;;;;;;;;;;;;;;;;5013966;28;867;-67
2022/05/13 06:45:11;;;;;;;;;;;;;;;;;;5014758;28;853;-67
2022/05/13 06:47:36;;;;;;;;;;;;;;;;;;4996510;28;2241;-67
2022/05/13 06:50:03;;;;;;;;;;;;;;;;;;5015393;28;916;-66
2022/05/13 06:52:29;;;;;;;;;;;;;;;;;;5013861;28;1119;-67
2022/05/13 06:54:54;;;;;;;;;;;;;;;;;;5013920;28;1982;-67
2022/05/13 06:57:19;;;;;;;;;;;;;;;;;;5014282;28;992;-67
2022/05/13 06:59:44;;;;;;;;;;;;;;;;;;5014037;28;837;-67
2022/05/13 07:02:10;;;;;;;;;;;;;;;;;;4996224;28;909;-67
2022/05/13 07:04:35;;;;;;;;;;;;;;;;;;5014574;28;916;-67
2022/05/13 07:07:01;;;;;;;;;;;;;;;;;;5014486;28;959;-67
2022/05/13 07:09:26;;;;;;;;;;;;;;;;;;5014150;28;958;-67
2022/05/13 07:11:52;;;;;;;;;;;;;;;;;;4996654;28;852;-67
2022/05/13 07:14:17;;;;;;;;;;;;;;;;;;5014601;28;1902;-67
2022/05/13 07:16:42;;;;;;;;;;;;;;;;;;5013963;28;885;-67
2022/05/13 07:19:08;;;;;;;;;;;;;;;;;;4997019;28;1570;-67
2022/05/13 07:21:33;;;;;;;;;;;;;;;;;;5014067;28;758;-67
2022/05/13 07:23:59;;;;;;;;;;;;;;;;;;5014102;28;1008;-66
2022/05/13 07:26:24;;;;;;;;;;;;;;;;;;5014042;28;1054;-67
2022/05/13 07:28:49;;;;;;;;;;;;;;;;;;4996222;28;1329;-67
2022/05/13 07:31:14;;;;;;;;;;;;;;;;;;5029285;28;722;-67
2022/05/13 07:33:39;;;;;;;;;;;;;;;;;;5015361;28;869;-67
2022/05/13 07:36:05;;;;;;;;;;;;;;;;;;5014609;28;1965;-67
2022/05/13 07:38:31;;;;;;;;;;;;;;;;;;5013854;28;860;-67
2022/05/13 07:43:40;;;;;;;;;;;;;;;;;;5014191;28;700;-66
2022/05/13 07:46:06;;;;;;;;;;;;;;;;;;5014170;28;959;-66
2022/05/13 07:48:31;;;;;;;;;;;;;;;;;;5014607;28;850;-67
2022/05/13 07:50:57;;;;;;;;;;;;;;;;;;5014177;28;992;-67
2022/05/13 07:53:22;;;;;;;;;;;;;;;;;;5014218;28;841;-66
2022/05/13 07:55:48;;;;;;;;;;;;;;;;;;5013473;28;1894;-67
2022/05/13 07:58:15;;;;;;;;;;;;;;;;;;4996045;28;821;-67
2022/05/13 08:00:42;;;;;;;;;;;;;;;;;;5013979;28;861;-67
2022/05/13 08:03:09;;;;;;;;;;;;;;;;;;4995081;28;1699;-67
2022/05/13 08:05:38;;;;;;;;;;;;;;;;;;5011007;28;1169;-67
2022/05/13 08:08:07;;;;;;;;;;;;;;;;;;5011675;28;1118;-67
2022/05/13 08:10:32;;;;;;;;;;;;;;;;;;5011538;28;1221;-67
2022/05/13 08:12:58;;;;;;;;;;;;;;;;;;5012377;28;1146;-67
2022/05/13 08:15:23;;;;;;;;;;;;;;;;;;5013755;28;1969;-67
2022/05/13 08:17:48;;;;;;;;;;;;;;;;;;4995760;28;889;-67
2022/05/13 08:20:15;;;;;;;;;;;;;;;;;;5012894;28;1096;-68
2022/05/13 08:22:41;;;;;;;;;;;;;;;;;;5013320;28;1000;-72
2022/05/13 08:25:07;;;;;;;;;;;;;;;;;;5013131;28;979;-72
2022/05/13 08:27:33;;;;;;;;;;;;;;;;;;5013074;28;1305;-72
2022/05/13 08:29:58;;;;;;;;;;;;;;;;;;5013059;28;963;-67
2022/05/13 08:32:24;;;;;;;;;;;;;;;;;;5013067;28;896;-67
2022/05/13 08:34:49;;;;;;;;;;;;;;;;;;5013002;28;1914;-67
2022/05/13 08:37:14;;;;;;;;;;;;;;;;;;4995193;28;1063;-67
2022/05/13 08:39:40;;;;;;;;;;;;;;;;;;5013603;28;837;-67
2022/05/13 08:42:08;;;;;;;;;;;;;;;;;;5012790;28;805;-67
2022/05/13 08:44:33;;;;;;;;;;;;;;;;;;5013045;28;931;-67
2022/05/13 08:47:10;;;;;;;;;;;;;;;;;;5012829;28;904;-67
2022/05/13 08:49:41;;;;;;;;;;;;;;;;;;5012393;28;834;-67
2022/05/13 08:55:12;;;;;;;;;;;;;;;;;;5012611;28;1975;-67
2022/05/13 08:57:39;;;;;;;;;;;;;;;;;;5012765;28;838;-67
2022/05/13 09:00:08;;;;;;;;;;;;;;;;;;5012464;28;833;-67
2022/05/13 09:02:36;;;;;;;;;;;;;;;;;;5012083;28;1147;-67
2022/05/13 09:05:10;;;;;;;;;;;;;;;;;;5012168;28;1071;-67
2022/05/13 09:07:36;;;;;;;;;;;;;;;;;;4994560;28;1441;-68
2022/05/13 09:10:03;;;;;;;;;;;;;;;;;;4994291;28;1329;-67
2022/05/13 09:13:04;;;;;;;;;;;;;;;;;;5012220;28;938;-67
2022/05/13 09:15:35;;;;;;;;;;;;;;;;;;4951594;29;1970;-67
2022/05/13 09:18:03;;;;;;;;;;;;;;;;;;5001158;28;1142;-67
2022/05/13 09:20:28;;;;;;;;;;;;;;;;;;5007648;28;1218;-67
2022/05/13 09:22:58;;;;;;;;;;;;;;;;;;5010776;28;1191;-67
2022/05/13 09:25:42;;;;;;;;;;;;;;;;;;5010398;28;1134;-67
2022/05/13 09:28:11;;;;;;;;;;;;;;;;;;4991845;28;1489;-67
2022/05/13 09:30:38;;;;;;;;;;;;;;;;;;4992771;28;837;-68
2022/05/13 09:33:24;;;;;;;;;;;;;;;;;;4991557;28;786;-67
2022/05/13 09:35:52;;;;;;;;;;;;;;;;;;4991761;28;1910;-67
2022/05/13 09:38:19;;;;;;;;;;;;;;;;;;4992249;28;1132;-67
2022/05/13 09:41:01;;;;;;;;;;;;;;;;;;4992069;28;976;-67
2022/05/13 09:43:31;;;;;;;;;;;;;;;;;;4990110;28;1232;-67
2022/05/13 09:46:03;;;;;;;;;;;;;;;;;;4991880;28;956;-67
2022/05/13 09:48:28;;;;;;;;;;;;;;;;;;4991757;28;771;-67
2022/05/13 09:50:59;;;;;;;;;;;;;;;;;;4991681;28;838;-67
2022/05/13 09:53:24;;;;;;;;;;;;;;;;;;4990625;28;822;-67
2022/05/13 09:55:50;;;;;;;;;;;;;;;;;;4991936;28;1993;-67
2022/05/13 09:58:18;;;;;;;;;;;;;;;;;;4991989;28;770;-67
2022/05/13 10:00:46;;;;;;;;;;;;;;;;;;4991937;28;1084;-67
2022/05/13 10:03:18;;;;;;;;;;;;;;;;;;4991489;28;885;-67
2022/05/13 10:05:43;;;;;;;;;;;;;;;;;;5006916;28;949;-67
2022/05/13 10:08:09;;;;;;;;;;;;;;;;;;4991744;28;904;-67
2022/05/13 10:16:07;;;;;;;;;;;;;;;;;;4991627;28;1977;-67
2022/05/13 10:18:34;;;;;;;;;;;;;;;;;;4991339;28;876;-67
2022/05/13 10:21:11;;;;;;;;;;;;;;;;;;4992124;28;899;-67
2022/05/13 10:23:55;;;;;;;;;;;;;;;;;;4974104;28;1213;-67
2022/05/13 10:26:24;;;;;;;;;;;;;;;;;;4991335;28;901;-67
2022/05/13 10:29:03;;;;;;;;;;;;;;;;;;4991461;28;1072;-67
2022/05/13 10:31:30;;;;;;;;;;;;;;;;;;4991386;28;941;-67
2022/05/13 10:34:01;;;;;;;;;;;;;;;;;;5006384;28;1914;-67
2022/05/13 10:36:59;;;;;;;;;;;;;;;;;;4994914;28;844;-67
2022/05/13 10:39:44;;;;;;;;;;;;;;;;;;4972616;28;1210;-67
2022/05/13 10:42:19;;;;;;;;;;;;;;;;;;5013999;28;1209;-67
2022/05/13 10:44:59;;;;;;;;;;;;;;;;;;5014679;28;1043;-67
2022/05/13 10:47:41;;;;;;;;;;;;;;;;;;5014559;28;778;-67
2022/05/13 10:50:26;;;;;;;;;;;;;;;;;;5015270;28;840;-67
2022/05/13 10:53:01;;;;;;;;;;;;;;;;;;4996860;28;1247;-67
2022/05/13 10:55:46;;;;;;;;;;;;;;;;;;5014012;28;1896;-67
2022/05/13 10:58:29;;;;;;;;;;;;;;;;;;5015244;28;936;-67
2022/05/13 11:01:14;;;;;;;;;;;;;;;;;;5014999;28;790;-67
2022/05/13 11:03:51;;;;;;;;;;;;;;;;;;5014254;28;960;-71
2022/05/13 11:06:17;;;;;;;;;;;;;;;;;;5013912;28;908;-72
2022/05/13 11:08:42;;;;;;;;;;;;;;;;;;5013545;28;904;-71
2022/05/13 11:11:19;;;;;;;;;;;;;;;;;;4996042;28;924;-71
2022/05/13 11:13:52;;;;;;;;;;;;;;;;;;5013603;28;897;-71
2022/05/13 11:16:23;;;;;;;;;;;;;;;;;;5013147;28;1902;-71
2022/05/13 11:18:54;;;;;;;;;;;;;;;;;;5013417;28;952;-72
2022/05/13 11:21:26;;;;;;;;;;;;;;;;;;5013233;28;770;-71
2022/05/13 11:26:47;;;;;;;;;;;;;;;;;;5014105;28;694;-67
2022/05/13 11:29:15;;;;;;;;;;;;;;;;;;5013366;28;1086;-67
2022/05/13 11:31:41;;;;;;;;;;;;;;;;;;5014098;28;956;-67
2022/05/13 11:34:25;;;;;;;;;;;;;;;;;;5014271;28;1985;-67
2022/05/13 11:36:50;;;;;;;;;;;;;;;;;;5013848;28;988;-68
2022/05/13 11:39:25;;;;;;;;;;;;;;;;;;5014359;28;944;-67
2022/05/13 11:42:03;;;;;;;;;;;;;;;;;;5014221;28;842;-67
2022/05/13 11:44:41;;;;;;;;;;;;;;;;;;5013415;28;1182;-70
2022/05/13 11:47:14;;;;;;;;;;;;;;;;;;5013772;28;876;-67
2022/05/13 11:49:43;;;;;;;;;;;;;;;;;;5015095;28;778;-67
2022/05/13 11:52:11;;;;;;;;;;;;;;;;;;5014050;28;919;-67
2022/05/13 11:54:37;;;;;;;;;;;;;;;;;;4996033;28;1909;-67
2022/05/13 11:57:24;;;;;;;;;;;;;;;;;;5014072;28;912;-67
2022/05/13 11:59:50;;;;;;;;;;;;;;;;;;5012238;28;825;-67
2022/05/13 12:02:29;;;;;;;;;;;;;;;;;;5010787;28;825;-67
2022/05/13 12:05:23;;;;;;;;;;;;;;;;;;5011683;28;864;-67
2022/05/13 12:08:15;;;;;;;;;;;;;;;;;;5010974;28;813;-67
2022/05/13 12:10:45;;;;;;;;;;;;;;;;;;4988047;28;1172;-67
2022/05/13 12:13:16;;;;;;;;;;;;;;;;;;5011699;28;834;-67
2022/05/13 12:15:49;;;;;;;;;;;;;;;;;;5011289;28;1906;-67
2022/05/13 12:18:25;;;;;;;;;;;;;;;;;;5013430;28;941;-67
2022/05/13 12:21:09;;;;;;;;;;;;;;;;;;5013685;28;972;-67
2022/05/13 12:23:53;;;;;;;;;;;;;;;;;;5012722;28;1066;-67
2022/05/13 12:26:21;;;;;;;;;;;;;;;;;;5012301;28;841;-67
2022/05/13 12:28:55;;;;;;;;;;;;;;;;;;5012358;28;1225;-67
2022/05/13 12:31:29;;;;;;;;;;;;;;;;;;5012746;28;890;-67
2022/05/13 12:39:44;;;;;;;;;;;;;;;;;;5012878;28;709;-67
2022/05/13 12:42:10;;;;;;;;;;;;;;;;;;5012894;28;943;-67
2022/05/13 12:44:36;;;;;;;;;;;;;;;;;;5012507;28;836;-67
2022/05/13 12:47:17;;;;;;;;;;;;;;;;;;5013478;28;841;-67
2022/05/13 12:49:48;;;;;;;;;;;;;;;;;;5012824;28;973;-67
2022/05/13 12:52:15;;;;;;;;;;;;;;;;;;4995123;28;1277;-67
2022/05/13 12:54:44;;;;;;;;;;;;;;;;;;5012315;28;1969;-67
2022/05/13 12:57:11;;;;;;;;;;;;;;;;;;5012940;28;885;-67
2022/05/13 12:59:39;;;;;;;;;;;;;;;;;;4994509;28;823;-67
2022/05/13 13:02:06;;;;;;;;;;;;;;;;;;5012494;28;942;-67
2022/05/13 13:04:34;;;;;;;;;;;;;;;;;;5011620;28;917;-67
2022/05/13 13:07:07;;;;;;;;;;;;;;;;;;5012034;28;842;-67
2022/05/13 13:09:34;;;;;;;;;;;;;;;;;;5011948;28;1022;-67
2022/05/13 13:12:28;;;;;;;;;;;;;;;;;;5012278;28;809;-67
2022/05/13 13:14:57;;;;;;;;;;;;;;;;;;4981536;28;1906;-67
2022/05/13 13:17:22;;;;;;;;;;;;;;;;;;5011958;28;853;-67
2022/05/13 13:19:50;;;;;;;;;;;;;;;;;;5012111;28;1024;-67
2022/05/13 13:22:19;;;;;;;;;;;;;;;;;;5012419;28;888;-67
2022/05/13 13:24:44;;;;;;;;;;;;;;;;;;5011721;28;923;-67
2022/05/13 13:27:14;;;;;;;;;;;;;;;;;;5012370;28;857;-67
2022/05/13 13:29:41;;;;;;;;;;;;;;;;;;5011842;28;1150;-67
2022/05/13 13:32:11;;;;;;;;;;;;;;;;;;4995160;28;920;-67
2022/05/13 13:34:38;;;;;;;;;;;;;;;;;;5012294;28;1898;-67
2022/05/13 13:37:05;;;;;;;;;;;;;;;;;;5012386;28;833;-67
2022/05/13 13:39:31;;;;;;;;;;;;;;;;;;5011825;28;952;-67
2022/05/13 13:41:58;;;;;;;;;;;;;;;;;;5012284;28;802;-67
2022/05/13 13:44:24;;;;;;;;;;;;;;;;;;5011971;28;992;-67
2022/05/13 13:46:49;;;;;;;;;;;;;;;;;;5011828;28;829;-67
2022/05/13 13:49:24;;;;;;;;;;;;;;;;;;5012112;28;755;-67
2022/05/13 13:51:51;;;;;;;;;;;;;;;;;;5011639;28;959;-67
2022/05/13 13:54:17;;;;;;;;;;;;;;;;;;5012341;28;1894;-67
2022/05/13 13:57:01;;;;;;;;;;;;;;;;;;5011814;28;1047;-67
2022/05/13 13:59:32;;;;;;;;;;;;;;;;;;5011618;28;918;-67
2022/05/13 14:01:59;;;;;;;;;;;;;;;;;;5011963;28;957;-67
2022/05/13 14:04:27;;;;;;;;;;;;;;;;;;5011653;28;986;-67
2022/05/13 14:06:53;;;;;;;;;;;;;;;;;;5011493;28;965;-67
2022/05/13 14:09:18;;;;;;;;;;;;;;;;;;5012322;28;810;-67
2022/05/13 14:11:44;;;;;;;;;;;;;;;;;;5015705;28;826;-67
2022/05/13 14:14:09;;;;;;;;;;;;;;;;;;5015641;28;1902;-67
2022/05/13 14:16:42;;;;;;;;;;;;;;;;;;5015653;28;845;-67
2022/05/13 14:19:09;;;;;;;;;;;;;;;;;;5015856;28;885;-67
2022/05/13 14:21:35;;;;;;;;;;;;;;;;;;5015508;28;830;-67
2022/05/13 14:24:02;;;;;;;;;;;;;;;;;;5016051;28;947;-65
2022/05/13 14:26:29;;;;;;;;;;;;;;;;;;4997308;28;1036;-67
2022/05/13 14:28:54;;;;;;;;;;;;;;;;;;5015358;28;1070;-67
2022/05/13 14:31:31;;;;;;;;;;;;;;;;;;4997731;28;870;-67
2022/05/13 14:33:57;;;;;;;;;;;;;;;;;;5015290;28;837;-67
2022/05/13 14:36:31;;;;;;;;;;;;;;;;;;4997647;28;1969;-67
2022/05/13 14:42:08;;;;;;;;;;;;;;;;;;5015229;28;868;-67
2022/05/13 14:44:50;;;;;;;;;;;;;;;;;;5014694;28;1135;-67
2022/05/13 14:47:25;;;;;;;;;;;;;;;;;;4997227;28;1051;-67
2022/05/13 14:49:57;;;;;;;;;;;;;;;;;;5014041;28;896;-67
2022/05/13 14:52:26;;;;;;;;;;;;;;;;;;5014362;28;904;-65
2022/05/13 14:54:52;;;;;;;;;;;;;;;;;;5013581;28;1976;-67
2022/05/13 14:57:18;;;;;;;;;;;;;;;;;;5014378;28;1004;-67
2022/05/13 15:00:00;;;;;;;;;;;;;;;;;;5013905;28;802;-65
2022/05/13 15:02:31;;;;;;;;;;;;;;;;;;5014324;28;818;-66
2022/05/13 15:05:06;;;;;;;;;;;;;;;;;;5014104;28;963;-66
2022/05/13 15:07:38;;;;;;;;;;;;;;;;;;5013973;28;853;-66
2022/05/13 15:10:04;;;;;;;;;;;;;;;;;;4996686;28;1439;-66
2022/05/13 15:12:30;;;;;;;;;;;;;;;;;;5014252;28;834;-65
2022/05/13 15:14:56;;;;;;;;;;;;;;;;;;5014172;28;1969;-66
2022/05/13 15:17:23;;;;;;;;;;;;;;;;;;5014126;28;1430;-66
2022/05/13 15:19:48;;;;;;;;;;;;;;;;;;4997518;28;837;-66
2022/05/13 15:22:14;;;;;;;;;;;;;;;;;;5015351;28;916;-66
2022/05/13 15:24:41;;;;;;;;;;;;;;;;;;5015795;28;923;-66
2022/05/13 15:27:08;;;;;;;;;;;;;;;;;;5015343;28;869;-66
2022/05/13 15:29:36;;;;;;;;;;;;;;;;;;5013970;28;1090;-66
2022/05/13 15:32:06;;;;;;;;;;;;;;;;;;5014215;28;1042;-66
2022/05/13 15:34:31;;;;;;;;;;;;;;;;;;5013940;28;1961;-66
2022/05/13 15:36:56;;;;;;;;;;;;;;;;;;5014048;28;952;-66
2022/05/13 15:39:22;;;;;;;;;;;;;;;;;;5014377;28;848;-66
2022/05/13 15:41:47;;;;;;;;;;;;;;;;;;5013652;28;821;-66
2022/05/13 15:44:12;;;;;;;;;;;;;;;;;;5014452;28;1063;-66
2022/05/13 15:46:37;;;;;;;;;;;;;;;;;;5013738;28;895;-66
2022/05/13 15:54:30;;;;;;;;;;;;;;;;;;5013092;28;1914;-66
2022/05/13 15:56:57;;;;;;;;;;;;;;;;;;5012903;28;750;-66
2022/05/13 15:59:24;;;;;;;;;;;;;;;;;;5012404;28;844;-66
2022/05/13 16:01:49;;;;;;;;;;;;;;;;;;5013173;28;1142;-66
2022/05/13 16:04:14;;;;;;;;;;;;;;;;;;5013772;28;876;-66
2022/05/13 16:06:39;;;;;;;;;;;;;;;;;;5013705;28;870;-66
2022/05/13 16:09:04;;;;;;;;;;;;;;;;;;5013787;28;865;-66
2022/05/13 16:11:32;;;;;;;;;;;;;;;;;;4995794;28;893;-66
2022/05/13 16:13:57;;;;;;;;;;;;;;;;;;5028741;28;1184;-65
2022/05/13 16:16:25;;;;;;;;;;;;;;;;;;5013246;28;1886;-66
2022/05/13 16:18:52;;;;;;;;;;;;;;;;;;5014016;28;979;-65
2022/05/13 16:21:22;;;;;;;;;;;;;;;;;;5013475;28;829;-66
2022/05/13 16:23:50;;;;;;;;;;;;;;;;;;5012812;28;890;-66
2022/05/13 16:26:16;;;;;;;;;;;;;;;;;;5012860;28;806;-66
2022/05/13 16:28:42;;;;;;;;;;;;;;;;;;5012482;28;1115;-66
2022/05/13 16:31:07;;;;;;;;;;;;;;;;;;5012487;28;995;-66
2022/05/13 16:33:33;;;;;;;;;;;;;;;;;;5011810;28;955;-66
2022/05/13 16:35:58;;;;;;;;;;;;;;;;;;5012628;28;1942;-66
2022/05/13 16:38:23;;;;;;;;;;;;;;;;;;5012614;28;782;-66
2022/05/13 16:40:49;;;;;;;;;;;;;;;;;;5012309;28;820;-66
2022/05/13 16:43:14;;;;;;;;;;;;;;;;;;5012481;28;920;-65
2022/05/13 16:45:39;;;;;;;;;;;;;;;;;;5013076;28;889;-66
2022/05/13 16:48:05;;;;;;;;;;;;;;;;;;5012223;28;833;-66
2022/05/13 16:50:31;;;;;;;;;;;;;;;;;;5012428;28;1117;-65
2022/05/13 16:52:58;;;;;;;;;;;;;;;;;;5012739;28;978;-65
2022/05/13 16:55:25;;;;;;;;;;;;;;;;;;4994412;28;1878;-66
2022/05/13 16:57:50;;;;;;;;;;;;;;;;;;5012267;28;861;-66
2022/05/13 17:00:17;;;;;;;;;;;;;;;;;;5012117;28;858;-66
2022/05/13 17:02:42;;;;;;;;;;;;;;;;;;5012230;28;810;-66
2022/05/13 17:05:09;;;;;;;;;;;;;;;;;;5012410;28;846;-66
2022/05/13 17:07:34;;;;;;;;;;;;;;;;;;5012161;28;817;-66
2022/05/13 17:18:11;;;;;;;;;;;;;;;;;;5013018;28;629;-66
2022/05/13 17:20:37;;;;;;;;;;;;;;;;;;5012144;28;782;-65
2022/05/13 17:23:02;;;;;;;;;;;;;;;;;;5011974;28;902;-65
2022/05/13 17:25:28;;;;;;;;;;;;;;;;;;5012333;28;979;-65
2022/05/13 17:27:55;;;;;;;;;;;;;;;;;;5012211;28;920;-65
2022/05/13 17:30:21;;;;;;;;;;;;;;;;;;5011563;28;1306;-65
2022/05/13 17:32:47;;;;;;;;;;;;;;;;;;5012175;28;912;-66
2022/05/13 17:35:13;;;;;;;;;;;;;;;;;;4995204;28;1976;-65
2022/05/13 17:37:46;;;;;;;;;;;;;;;;;;5012243;28;826;-70
2022/05/13 17:40:20;;;;;;;;;;;;;;;;;;5010997;28;904;-69
2022/05/13 17:42:46;;;;;;;;;;;;;;;;;;5010100;28;803;-69
2022/05/13 17:45:12;;;;;;;;;;;;;;;;;;5013888;28;925;-67
2022/05/13 17:47:38;;;;;;;;;;;;;;;;;;5016091;28;896;-67
2022/05/13 17:50:04;;;;;;;;;;;;;;;;;;5015750;28;920;-67
2022/05/13 17:52:29;;;;;;;;;;;;;;;;;;5016245;28;904;-67
2022/05/13 17:54:55;;;;;;;;;;;;;;;;;;5015752;28;1960;-66
2022/05/13 17:57:20;;;;;;;;;;;;;;;;;;5016224;28;818;-66
2022/05/13 17:59:45;;;;;;;;;;;;;;;;;;5015968;28;838;-66
2022/05/13 18:02:10;;;;;;;;;;;;;;;;;;5015103;28;948;-66
2022/05/13 18:04:36;;;;;;;;;;;;;;;;;;5015698;28;896;-66
2022/05/13 18:07:02;;;;;;;;;;;;;;;;;;5015935;28;826;-66
2022/05/13 18:09:27;;;;;;;;;;;;;;;;;;5015287;28;893;-66
2022/05/13 18:11:53;;;;;;;;;;;;;;;;;;5015291;28;862;-66
2022/05/13 18:14:18;;;;;;;;;;;;;;;;;;4997127;28;1965;-66
2022/05/13 18:16:44;;;;;;;;;;;;;;;;;;5015451;28;881;-66